createdAt,value
2022-08-28T00:00:19.162Z,26.63
2022-08-28T00:01:21.039Z,26.62
2022-08-28T00:02:22.958Z,26.62
2022-08-28T00:03:24.812Z,26.62
2022-08-28T00:04:26.709Z,26.60
2022-08-28T00:05:28.521Z,26.60
2022-08-28T00:06:30.701Z,26.59
2022-08-28T00:07:32.611Z,26.59
2022-08-28T00:08:34.503Z,26.58
2022-08-28T00:09:36.361Z,26.58
2022-08-28T00:10:38.338Z,26.57
2022-08-28T00:11:40.215Z,26.57
2022-08-28T00:12:42.136Z,26.55
2022-08-28T00:13:44.717Z,26.53
2022-08-28T00:14:46.577Z,26.55
2022-08-28T00:15:48.480Z,26.55
2022-08-28T00:16:50.423Z,26.53
2022-08-28T00:17:52.335Z,26.52
2022-08-28T00:18:54.191Z,26.51
2022-08-28T00:19:56.034Z,26.52
2022-08-28T00:20:58.104Z,26.49
2022-08-28T00:22:00.674Z,26.50
2022-08-28T00:23:02.600Z,26.49
2022-08-28T00:24:04.824Z,26.48
2022-08-28T00:25:06.685Z,26.48
2022-08-28T00:26:09.068Z,26.47
2022-08-28T00:27:10.936Z,26.47
2022-08-28T00:28:23.376Z,26.47
2022-08-28T00:29:16.517Z,26.46
2022-08-28T00:30:19.911Z,26.45
2022-08-28T00:31:21.803Z,26.44
2022-08-28T00:32:23.645Z,26.44
2022-08-28T00:33:25.560Z,26.42
2022-08-28T00:34:32.028Z,26.42
2022-08-28T00:35:31.107Z,26.41
2022-08-28T00:36:33.276Z,26.41
2022-08-28T00:37:35.151Z,26.39
2022-08-28T00:38:37.366Z,26.39
2022-08-28T00:39:39.304Z,26.40
2022-08-28T00:40:42.847Z,26.38
2022-08-28T00:41:46.099Z,26.38
2022-08-28T00:42:47.977Z,26.39
2022-08-28T00:43:49.912Z,26.39
2022-08-28T00:44:51.773Z,26.38
2022-08-28T00:45:53.683Z,26.38
2022-08-28T00:46:56.361Z,26.37
2022-08-28T00:47:58.223Z,26.37
2022-08-28T00:49:00.119Z,26.37
2022-08-28T00:50:02.118Z,26.37
2022-08-28T00:51:03.982Z,26.37
2022-08-28T00:52:05.869Z,26.38
2022-08-28T00:53:07.695Z,26.37
2022-08-28T00:54:09.610Z,26.38
2022-08-28T00:55:11.557Z,26.37
2022-08-28T00:56:13.557Z,26.37
2022-08-28T00:57:15.418Z,26.37
2022-08-28T00:58:17.286Z,26.35
2022-08-28T00:59:19.214Z,26.35
2022-08-28T01:00:21.389Z,26.34
2022-08-28T01:01:23.293Z,26.35
2022-08-28T01:02:25.172Z,26.34
2022-08-28T01:03:26.989Z,26.33
2022-08-28T01:04:28.884Z,26.33
2022-08-28T01:05:30.791Z,26.33
2022-08-28T01:06:32.840Z,26.33
2022-08-28T01:07:34.716Z,26.32
2022-08-28T01:08:36.595Z,26.32
2022-08-28T01:09:38.513Z,26.32
2022-08-28T01:10:40.841Z,26.32
2022-08-28T01:11:42.715Z,26.32
2022-08-28T01:12:44.589Z,26.32
2022-08-28T01:13:46.451Z,26.33
2022-08-28T01:14:48.321Z,26.32
2022-08-28T01:15:50.245Z,26.33
2022-08-28T01:16:52.244Z,26.33
2022-08-28T01:17:54.092Z,26.32
2022-08-28T01:18:55.953Z,26.32
2022-08-28T01:19:57.885Z,26.32
2022-08-28T01:20:59.881Z,26.32
2022-08-28T01:22:01.749Z,26.32
2022-08-28T01:23:03.726Z,26.33
2022-08-28T01:24:05.583Z,26.32
2022-08-28T01:25:07.472Z,26.32
2022-08-28T01:26:11.654Z,26.32
2022-08-28T01:27:13.232Z,26.33
2022-08-28T01:28:15.412Z,26.32
2022-08-28T01:29:17.442Z,26.33
2022-08-28T01:30:22.264Z,26.32
2022-08-28T01:31:24.150Z,26.33
2022-08-28T01:32:25.979Z,26.33
2022-08-28T01:33:28.272Z,26.33
2022-08-28T01:34:30.203Z,26.32
2022-08-28T01:35:32.116Z,26.32
2022-08-28T01:36:34.091Z,26.32
2022-08-28T01:37:35.978Z,26.32
2022-08-28T01:38:37.843Z,26.31
2022-08-28T01:39:39.724Z,26.32
2022-08-28T01:40:41.862Z,26.33
2022-08-28T01:41:43.820Z,26.31
2022-08-28T01:42:45.684Z,26.32
2022-08-28T01:43:47.537Z,26.32
2022-08-28T01:44:49.408Z,26.31
2022-08-28T01:45:51.380Z,26.32
2022-08-28T01:46:53.280Z,26.31
2022-08-28T01:47:55.138Z,26.30
2022-08-28T01:48:57.023Z,26.29
2022-08-28T01:49:58.884Z,26.29
2022-08-28T01:51:00.904Z,26.29
2022-08-28T01:52:03.364Z,26.29
2022-08-28T01:53:05.370Z,26.29
2022-08-28T01:54:07.211Z,26.28
2022-08-28T01:55:10.902Z,26.28
2022-08-28T01:56:13.316Z,26.27
2022-08-28T01:57:15.286Z,26.28
2022-08-28T01:58:18.970Z,26.27
2022-08-28T01:59:20.823Z,26.26
2022-08-28T02:00:23.556Z,26.26
2022-08-28T02:01:25.399Z,26.26
2022-08-28T02:02:27.292Z,26.26
2022-08-28T02:03:29.153Z,26.25
2022-08-28T02:04:32.202Z,26.25
2022-08-28T02:05:34.413Z,26.25
2022-08-28T02:06:36.419Z,26.25
2022-08-28T02:07:38.287Z,26.25
2022-08-28T02:08:40.140Z,26.25
2022-08-28T02:09:41.989Z,26.25
2022-08-28T02:10:43.929Z,26.25
2022-08-28T02:11:46.705Z,26.23
2022-08-28T02:12:48.796Z,26.23
2022-08-28T02:13:50.809Z,26.23
2022-08-28T02:14:52.690Z,26.23
2022-08-28T02:15:54.543Z,26.23
2022-08-28T02:16:56.718Z,26.22
2022-08-28T02:17:59.545Z,26.22
2022-08-28T02:19:01.414Z,26.23
2022-08-28T02:20:03.355Z,26.22
2022-08-28T02:21:05.181Z,26.23
2022-08-28T02:22:07.070Z,26.24
2022-08-28T02:23:08.917Z,26.24
2022-08-28T02:24:10.758Z,26.22
2022-08-28T02:25:12.598Z,26.23
2022-08-28T02:26:15.398Z,26.23
2022-08-28T02:27:17.182Z,26.24
2022-08-28T02:28:19.053Z,26.18
2022-08-28T02:29:20.897Z,26.23
2022-08-28T02:30:24.260Z,26.22
2022-08-28T02:31:26.153Z,26.23
2022-08-28T02:32:28.052Z,26.23
2022-08-28T02:33:29.902Z,26.23
2022-08-28T02:34:31.745Z,26.21
2022-08-28T02:35:33.587Z,26.21
2022-08-28T02:36:35.548Z,26.21
2022-08-28T02:37:37.445Z,26.21
2022-08-28T02:38:39.281Z,26.20
2022-08-28T02:39:41.135Z,26.20
2022-08-28T02:40:43.068Z,26.19
2022-08-28T02:41:44.914Z,26.18
2022-08-28T02:42:46.794Z,26.17
2022-08-28T02:43:48.688Z,26.16
2022-08-28T02:44:50.512Z,26.15
2022-08-28T02:45:52.391Z,26.16
2022-08-28T02:46:54.285Z,26.16
2022-08-28T02:47:56.586Z,26.15
2022-08-28T02:48:58.412Z,26.15
2022-08-28T02:50:00.239Z,26.14
2022-08-28T02:51:01.984Z,26.14
2022-08-28T02:52:03.831Z,26.13
2022-08-28T02:53:05.714Z,26.12
2022-08-28T02:54:07.551Z,26.12
2022-08-28T02:55:09.396Z,26.12
2022-08-28T02:56:13.045Z,26.12
2022-08-28T02:57:14.864Z,26.12
2022-08-28T02:58:16.743Z,26.11
2022-08-28T02:59:18.554Z,26.10
2022-08-28T03:00:21.001Z,26.10
2022-08-28T03:01:22.897Z,26.09
2022-08-28T03:02:25.040Z,26.08
2022-08-28T03:03:26.979Z,26.08
2022-08-28T03:04:28.820Z,26.08
2022-08-28T03:05:30.656Z,26.06
2022-08-28T03:06:32.616Z,26.05
2022-08-28T03:07:34.442Z,26.05
2022-08-28T03:08:36.354Z,26.05
2022-08-28T03:09:38.182Z,26.05
2022-08-28T03:10:40.126Z,26.04
2022-08-28T03:11:41.967Z,26.03
2022-08-28T03:12:43.797Z,26.03
2022-08-28T03:13:45.677Z,26.03
2022-08-28T03:14:47.588Z,26.02
2022-08-28T03:15:52.025Z,26.00
2022-08-28T03:16:53.198Z,26.00
2022-08-28T03:17:55.007Z,25.99
2022-08-28T03:18:56.886Z,25.98
2022-08-28T03:19:58.728Z,25.99
2022-08-28T03:21:00.663Z,25.97
2022-08-28T03:22:02.914Z,25.96
2022-08-28T03:23:04.737Z,25.97
2022-08-28T03:24:06.612Z,25.96
2022-08-28T03:25:08.665Z,25.95
2022-08-28T03:26:11.114Z,25.94
2022-08-28T03:27:12.964Z,25.93
2022-08-28T03:28:14.799Z,25.92
2022-08-28T03:29:16.669Z,25.91
2022-08-28T03:30:20.205Z,25.91
2022-08-28T03:31:22.155Z,25.90
2022-08-28T03:32:23.980Z,25.90
2022-08-28T03:33:27.625Z,25.89
2022-08-28T03:34:29.495Z,25.89
2022-08-28T03:35:31.353Z,25.90
2022-08-28T03:36:33.792Z,25.89
2022-08-28T03:37:35.537Z,25.89
2022-08-28T03:38:37.387Z,25.88
2022-08-28T03:39:39.259Z,25.88
2022-08-28T03:40:41.331Z,25.88
2022-08-28T03:41:43.136Z,25.87
2022-08-28T03:42:53.003Z,25.87
2022-08-28T03:43:48.620Z,25.88
2022-08-28T03:44:50.494Z,25.89
2022-08-28T03:45:52.445Z,25.88
2022-08-28T03:46:54.415Z,25.87
2022-08-28T03:47:56.253Z,25.85
2022-08-28T03:48:58.086Z,25.85
2022-08-28T03:49:59.966Z,25.88
2022-08-28T03:51:01.804Z,25.88
2022-08-28T03:52:03.724Z,25.89
2022-08-28T03:53:05.608Z,25.89
2022-08-28T03:54:07.433Z,25.90
2022-08-28T03:55:09.328Z,25.91
2022-08-28T03:56:11.572Z,25.91
2022-08-28T03:57:13.402Z,25.92
2022-08-28T03:58:18.929Z,25.92
2022-08-28T03:59:18.886Z,25.93
2022-08-28T04:00:22.397Z,25.94
2022-08-28T04:01:24.394Z,25.97
2022-08-28T04:02:26.243Z,25.97
2022-08-28T04:03:28.134Z,25.99
2022-08-28T04:04:30.012Z,26.00
2022-08-28T04:05:31.904Z,26.01
2022-08-28T04:06:33.840Z,26.04
2022-08-28T04:07:37.487Z,26.05
2022-08-28T04:08:39.319Z,26.08
2022-08-28T04:09:41.161Z,26.09
2022-08-28T04:10:43.042Z,26.10
2022-08-28T04:11:44.886Z,26.11
2022-08-28T04:12:46.737Z,26.14
2022-08-28T04:13:48.579Z,26.14
2022-08-28T04:14:50.405Z,26.15
2022-08-28T04:15:52.297Z,26.16
2022-08-28T04:16:55.894Z,26.17
2022-08-28T04:17:57.966Z,26.20
2022-08-28T04:18:59.792Z,26.20
2022-08-28T04:20:01.719Z,26.23
2022-08-28T04:21:03.613Z,26.23
2022-08-28T04:22:05.453Z,26.24
2022-08-28T04:23:07.310Z,26.25
2022-08-28T04:24:09.866Z,26.27
2022-08-28T04:25:11.834Z,26.27
2022-08-28T04:26:14.056Z,26.29
2022-08-28T04:27:15.903Z,26.29
2022-08-28T04:28:17.790Z,26.31
2022-08-28T04:29:19.650Z,26.31
2022-08-28T04:30:23.326Z,26.33
2022-08-28T04:31:31.852Z,26.33
2022-08-28T04:32:29.159Z,26.35
2022-08-28T04:33:31.014Z,26.37
2022-08-28T04:34:32.874Z,26.37
2022-08-28T04:35:34.763Z,26.38
2022-08-28T04:36:37.291Z,26.39
2022-08-28T04:37:39.158Z,26.40
2022-08-28T04:38:43.961Z,26.40
2022-08-28T04:39:44.710Z,26.41
2022-08-28T04:40:46.685Z,26.42
2022-08-28T04:41:48.575Z,26.43
2022-08-28T04:42:50.435Z,26.44
2022-08-28T04:43:52.297Z,26.45
2022-08-28T04:44:54.162Z,26.45
2022-08-28T04:45:56.063Z,26.46
2022-08-28T04:46:58.028Z,26.47
2022-08-28T04:48:03.310Z,26.48
2022-08-28T04:49:04.564Z,26.48
2022-08-28T04:50:06.734Z,26.49
2022-08-28T04:51:08.602Z,26.50
2022-08-28T04:52:10.495Z,26.50
2022-08-28T04:53:12.359Z,26.51
2022-08-28T04:54:14.231Z,26.52
2022-08-28T04:55:16.104Z,26.52
2022-08-28T04:56:20.804Z,26.53
2022-08-28T04:57:22.710Z,26.55
2022-08-28T04:58:24.626Z,26.56
2022-08-28T04:59:26.454Z,26.57
2022-08-28T05:00:28.626Z,26.58
2022-08-28T05:01:30.576Z,26.58
2022-08-28T05:02:32.533Z,26.59
2022-08-28T05:03:34.441Z,26.60
2022-08-28T05:04:36.311Z,26.60
2022-08-28T05:05:38.184Z,26.61
2022-08-28T05:06:40.459Z,26.61
2022-08-28T05:07:42.357Z,26.63
2022-08-28T05:08:46.041Z,26.64
2022-08-28T05:09:47.935Z,26.66
2022-08-28T05:10:49.897Z,26.68
2022-08-28T05:11:51.747Z,26.70
2022-08-28T05:12:53.650Z,26.72
2022-08-28T05:13:55.508Z,26.73
2022-08-28T05:14:57.367Z,26.74
2022-08-28T05:15:59.301Z,26.77
2022-08-28T05:17:01.229Z,26.79
2022-08-28T05:18:03.122Z,26.80
2022-08-28T05:19:05.022Z,26.82
2022-08-28T05:20:07.181Z,26.85
2022-08-28T05:21:12.656Z,26.86
2022-08-28T05:22:12.733Z,26.88
2022-08-28T05:23:14.632Z,26.91
2022-08-28T05:24:16.487Z,26.92
2022-08-28T05:25:18.377Z,26.94
2022-08-28T05:26:22.052Z,26.95
2022-08-28T05:27:25.725Z,26.98
2022-08-28T05:28:27.619Z,27.00
2022-08-28T05:29:29.508Z,27.01
2022-08-28T05:30:31.682Z,27.03
2022-08-28T05:31:33.610Z,27.04
2022-08-28T05:32:35.538Z,27.08
2022-08-28T05:33:37.445Z,27.10
2022-08-28T05:34:39.396Z,27.11
2022-08-28T05:35:41.263Z,27.14
2022-08-28T05:36:43.220Z,27.14
2022-08-28T05:37:45.091Z,27.16
2022-08-28T05:38:46.989Z,27.17
2022-08-28T05:39:48.843Z,27.18
2022-08-28T05:40:50.802Z,27.21
2022-08-28T05:41:52.664Z,27.23
2022-08-28T05:42:54.509Z,27.24
2022-08-28T05:43:56.435Z,27.25
2022-08-28T05:44:58.288Z,27.27
2022-08-28T05:46:00.326Z,27.29
2022-08-28T05:47:02.143Z,27.32
2022-08-28T05:48:04.014Z,27.34
2022-08-28T05:49:09.844Z,27.35
2022-08-28T05:50:09.936Z,27.35
2022-08-28T05:51:11.805Z,27.37
2022-08-28T05:52:13.673Z,27.40
2022-08-28T05:53:17.338Z,27.42
2022-08-28T05:54:19.244Z,27.43
2022-08-28T05:55:21.115Z,27.45
2022-08-28T05:56:23.193Z,27.47
2022-08-28T05:57:25.066Z,27.47
2022-08-28T05:58:26.944Z,27.47
2022-08-28T05:59:28.846Z,27.48
2022-08-28T06:00:30.800Z,27.50
2022-08-28T06:01:33.106Z,27.51
2022-08-28T06:02:35.011Z,27.53
2022-08-28T06:03:36.890Z,27.54
2022-08-28T06:04:38.959Z,27.56
2022-08-28T06:05:40.977Z,27.58
2022-08-28T06:06:42.958Z,27.59
2022-08-28T06:07:44.877Z,27.59
2022-08-28T06:08:58.093Z,27.61
2022-08-28T06:09:50.473Z,27.63
2022-08-28T06:10:53.015Z,27.66
2022-08-28T06:11:54.884Z,27.66
2022-08-28T06:12:58.579Z,27.68
2022-08-28T06:14:00.753Z,27.72
2022-08-28T06:15:03.512Z,27.73
2022-08-28T06:16:05.533Z,27.75
2022-08-28T06:17:09.166Z,27.78
2022-08-28T06:18:11.062Z,27.78
2022-08-28T06:19:12.918Z,27.81
2022-08-28T06:20:15.283Z,27.82
2022-08-28T06:21:17.207Z,27.85
2022-08-28T06:22:19.070Z,27.86
2022-08-28T06:23:23.798Z,27.86
2022-08-28T06:24:24.596Z,27.87
2022-08-28T06:25:26.508Z,27.90
2022-08-28T06:26:30.173Z,27.92
2022-08-28T06:27:32.047Z,27.93
2022-08-28T06:28:33.915Z,27.94
2022-08-28T06:29:36.387Z,27.97
2022-08-28T06:30:40.063Z,27.98
2022-08-28T06:31:42.259Z,28.00
2022-08-28T06:32:44.172Z,28.02
2022-08-28T06:33:46.053Z,28.03
2022-08-28T06:34:47.928Z,28.05
2022-08-28T06:35:49.799Z,28.08
2022-08-28T06:36:54.135Z,28.08
2022-08-28T06:37:55.939Z,28.10
2022-08-28T06:38:57.774Z,28.12
2022-08-28T06:39:59.625Z,28.14
2022-08-28T06:41:01.691Z,28.15
2022-08-28T06:42:03.522Z,28.16
2022-08-28T06:43:05.364Z,28.18
2022-08-28T06:44:07.202Z,28.20
2022-08-28T06:45:09.051Z,28.22
2022-08-28T06:46:11.681Z,28.19
2022-08-28T06:47:13.625Z,28.25
2022-08-28T06:48:16.483Z,28.28
2022-08-28T06:49:18.335Z,28.30
2022-08-28T06:50:20.978Z,28.32
2022-08-28T06:51:23.197Z,28.35
2022-08-28T06:52:26.536Z,28.35
2022-08-28T06:53:28.386Z,28.36
2022-08-28T06:54:30.228Z,28.39
2022-08-28T06:55:32.060Z,28.41
2022-08-28T06:56:36.212Z,28.41
2022-08-28T06:57:38.052Z,28.43
2022-08-28T06:58:39.906Z,28.44
2022-08-28T06:59:41.743Z,28.45
2022-08-28T07:00:43.692Z,28.46
2022-08-28T07:01:45.661Z,28.47
2022-08-28T07:02:47.549Z,28.49
2022-08-28T07:03:49.353Z,28.51
2022-08-28T07:04:51.197Z,28.53
2022-08-28T07:05:53.027Z,28.55
2022-08-28T07:06:55.081Z,28.56
2022-08-28T07:07:57.006Z,28.60
2022-08-28T07:08:58.838Z,28.62
2022-08-28T07:10:00.677Z,28.63
2022-08-28T07:11:02.616Z,28.65
2022-08-28T07:12:04.515Z,28.69
2022-08-28T07:13:07.778Z,28.67
2022-08-28T07:14:09.628Z,28.73
2022-08-28T07:15:11.459Z,28.75
2022-08-28T07:16:13.621Z,28.78
2022-08-28T07:17:15.476Z,28.80
2022-08-28T07:18:17.288Z,28.83
2022-08-28T07:19:20.464Z,28.85
2022-08-28T07:20:23.462Z,28.87
2022-08-28T07:21:25.311Z,28.89
2022-08-28T07:22:27.197Z,28.91
2022-08-28T07:23:29.068Z,28.94
2022-08-28T07:24:30.908Z,28.95
2022-08-28T07:25:32.745Z,28.97
2022-08-28T07:26:35.716Z,28.99
2022-08-28T07:27:37.788Z,28.97
2022-08-28T07:28:39.627Z,29.04
2022-08-28T07:29:41.453Z,29.07
2022-08-28T07:30:43.472Z,29.10
2022-08-28T07:31:45.331Z,29.11
2022-08-28T07:32:47.219Z,29.13
2022-08-28T07:33:53.509Z,29.15
2022-08-28T07:34:52.699Z,29.17
2022-08-28T07:35:54.529Z,29.20
2022-08-28T07:36:56.476Z,29.22
2022-08-28T07:37:58.259Z,29.24
2022-08-28T07:39:00.121Z,29.26
2022-08-28T07:40:02.084Z,29.28
2022-08-28T07:41:03.922Z,29.30
2022-08-28T07:42:05.929Z,29.31
2022-08-28T07:43:07.812Z,29.34
2022-08-28T07:44:09.657Z,29.36
2022-08-28T07:45:11.515Z,29.38
2022-08-28T07:46:13.632Z,29.39
2022-08-28T07:47:15.500Z,29.41
2022-08-28T07:48:17.811Z,29.44
2022-08-28T07:49:21.036Z,29.44
2022-08-28T07:50:23.276Z,29.46
2022-08-28T07:51:25.108Z,29.47
2022-08-28T07:52:26.947Z,29.48
2022-08-28T07:53:31.176Z,29.49
2022-08-28T07:54:32.528Z,29.50
2022-08-28T07:55:34.381Z,29.52
2022-08-28T07:56:36.820Z,29.54
2022-08-28T07:57:40.478Z,29.55
2022-08-28T07:58:42.332Z,29.56
2022-08-28T07:59:44.162Z,29.56
2022-08-28T08:00:46.123Z,29.57
2022-08-28T08:01:48.036Z,29.58
2022-08-28T08:02:49.903Z,29.59
2022-08-28T08:03:51.835Z,29.59
2022-08-28T08:04:55.455Z,29.61
2022-08-28T08:05:57.282Z,29.61
2022-08-28T08:06:59.208Z,29.63
2022-08-28T08:08:01.053Z,29.64
2022-08-28T08:09:03.127Z,29.64
2022-08-28T08:10:05.241Z,29.65
2022-08-28T08:11:07.482Z,29.67
2022-08-28T08:12:11.125Z,29.67
2022-08-28T08:13:12.976Z,29.68
2022-08-28T08:14:15.993Z,29.69
2022-08-28T08:15:17.832Z,29.70
2022-08-28T08:16:21.522Z,29.70
2022-08-28T08:17:23.317Z,29.70
2022-08-28T08:18:25.171Z,29.73
2022-08-28T08:19:27.045Z,29.70
2022-08-28T08:20:29.205Z,29.70
2022-08-28T08:21:30.942Z,29.75
2022-08-28T08:22:32.875Z,29.75
2022-08-28T08:23:34.715Z,29.77
2022-08-28T08:24:36.599Z,29.78
2022-08-28T08:25:38.400Z,29.79
2022-08-28T08:26:40.337Z,29.80
2022-08-28T08:27:43.188Z,29.80
2022-08-28T08:28:45.035Z,29.81
2022-08-28T08:29:46.916Z,29.82
2022-08-28T08:30:48.898Z,29.82
2022-08-28T08:31:50.718Z,29.84
2022-08-28T08:32:52.548Z,29.84
2022-08-28T08:33:56.212Z,29.85
2022-08-28T08:34:58.141Z,29.87
2022-08-28T08:35:59.991Z,29.87
2022-08-28T08:37:02.126Z,29.88
2022-08-28T08:38:03.965Z,29.89
2022-08-28T08:39:06.511Z,29.90
2022-08-28T08:40:10.802Z,29.90
2022-08-28T08:41:12.956Z,29.92
2022-08-28T08:42:14.822Z,29.92
2022-08-28T08:43:16.657Z,29.94
2022-08-28T08:44:18.506Z,29.94
2022-08-28T08:45:20.390Z,29.96
2022-08-28T08:46:22.722Z,29.95
2022-08-28T08:47:24.519Z,29.96
2022-08-28T08:48:26.394Z,29.96
2022-08-28T08:49:28.245Z,29.98
2022-08-28T08:50:30.253Z,29.97
2022-08-28T08:51:32.105Z,29.99
2022-08-28T08:52:33.956Z,30.00
2022-08-28T08:53:35.820Z,30.00
2022-08-28T08:54:37.677Z,30.01
2022-08-28T08:55:39.588Z,30.02
2022-08-28T08:56:41.588Z,30.03
2022-08-28T08:57:43.478Z,30.03
2022-08-28T08:58:47.113Z,30.04
2022-08-28T08:59:48.990Z,30.05
2022-08-28T09:00:51.208Z,30.06
2022-08-28T09:01:53.166Z,30.08
2022-08-28T09:02:55.131Z,30.08
2022-08-28T09:03:57.080Z,30.10
2022-08-28T09:05:00.724Z,30.10
2022-08-28T09:06:02.745Z,30.12
2022-08-28T09:07:04.636Z,30.14
2022-08-28T09:08:06.553Z,30.16
2022-08-28T09:09:09.081Z,30.17
2022-08-28T09:10:11.964Z,30.18
2022-08-28T09:11:13.881Z,30.19
2022-08-28T09:12:15.789Z,30.21
2022-08-28T09:13:17.661Z,30.21
2022-08-28T09:14:19.581Z,30.23
2022-08-28T09:15:22.429Z,30.23
2022-08-28T09:16:24.761Z,30.26
2022-08-28T09:17:26.663Z,30.27
2022-08-28T09:18:28.513Z,30.29
2022-08-28T09:19:30.389Z,30.31
2022-08-28T09:20:33.564Z,30.33
2022-08-28T09:21:35.608Z,30.36
2022-08-28T09:22:37.569Z,30.36
2022-08-28T09:23:41.065Z,30.37
2022-08-28T09:24:42.942Z,30.40
2022-08-28T09:25:44.816Z,30.41
2022-08-28T09:26:46.941Z,30.43
2022-08-28T09:27:50.956Z,30.45
2022-08-28T09:28:52.824Z,30.48
2022-08-28T09:29:54.673Z,30.49
2022-08-28T09:30:56.712Z,30.50
2022-08-28T09:31:58.558Z,30.53
2022-08-28T09:33:00.409Z,30.55
2022-08-28T09:34:02.879Z,30.56
2022-08-28T09:35:04.771Z,30.58
2022-08-28T09:36:06.845Z,30.61
2022-08-28T09:37:08.748Z,30.64
2022-08-28T09:38:10.624Z,30.65
2022-08-28T09:39:13.600Z,30.67
2022-08-28T09:40:16.705Z,30.69
2022-08-28T09:41:18.579Z,30.71
2022-08-28T09:42:20.450Z,30.72
2022-08-28T09:43:22.424Z,30.74
2022-08-28T09:44:24.266Z,30.74
2022-08-28T09:45:26.094Z,30.77
2022-08-28T09:46:28.683Z,30.78
2022-08-28T09:47:30.521Z,30.80
2022-08-28T09:48:32.368Z,30.80
2022-08-28T09:49:34.253Z,30.80
2022-08-28T09:50:36.496Z,30.81
2022-08-28T09:51:38.368Z,30.82
2022-08-28T09:52:40.244Z,30.83
2022-08-28T09:53:42.074Z,30.84
2022-08-28T09:54:43.984Z,30.85
2022-08-28T09:55:45.829Z,30.87
2022-08-28T09:56:47.885Z,30.88
2022-08-28T09:57:49.771Z,30.90
2022-08-28T09:58:51.705Z,30.92
2022-08-28T09:59:53.534Z,30.92
2022-08-28T10:00:55.478Z,30.95
2022-08-28T10:01:57.463Z,30.96
2022-08-28T10:02:59.362Z,30.96
2022-08-28T10:04:01.271Z,30.97
2022-08-28T10:05:03.074Z,30.99
2022-08-28T10:06:05.001Z,30.99
2022-08-28T10:07:06.835Z,31.01
2022-08-28T10:08:08.782Z,31.03
2022-08-28T10:09:10.589Z,31.04
2022-08-28T10:10:12.525Z,31.04
2022-08-28T10:11:16.172Z,31.05
2022-08-28T10:12:18.007Z,31.07
2022-08-28T10:13:19.892Z,31.09
2022-08-28T10:14:21.766Z,31.10
2022-08-28T10:15:23.602Z,31.14
2022-08-28T10:16:25.910Z,31.14
2022-08-28T10:17:27.694Z,31.17
2022-08-28T10:18:29.575Z,31.17
2022-08-28T10:19:33.245Z,31.19
2022-08-28T10:20:35.393Z,31.21
2022-08-28T10:21:37.233Z,31.21
2022-08-28T10:22:39.065Z,31.23
2022-08-28T10:23:40.960Z,31.24
2022-08-28T10:24:42.948Z,31.25
2022-08-28T10:25:44.774Z,31.27
2022-08-28T10:26:46.750Z,31.28
2022-08-28T10:27:48.585Z,31.31
2022-08-28T10:28:50.457Z,31.32
2022-08-28T10:29:52.321Z,31.33
2022-08-28T10:30:54.348Z,31.33
2022-08-28T10:31:56.220Z,31.33
2022-08-28T10:32:58.063Z,31.33
2022-08-28T10:33:59.952Z,31.34
2022-08-28T10:35:01.795Z,31.36
2022-08-28T10:36:03.741Z,31.36
2022-08-28T10:37:05.596Z,31.37
2022-08-28T10:38:07.443Z,31.36
2022-08-28T10:39:09.345Z,31.37
2022-08-28T10:40:11.320Z,31.38
2022-08-28T10:41:13.121Z,31.38
2022-08-28T10:42:16.992Z,31.39
2022-08-28T10:43:18.919Z,31.39
2022-08-28T10:44:21.203Z,31.40
2022-08-28T10:45:23.069Z,31.41
2022-08-28T10:46:27.213Z,31.41
2022-08-28T10:47:28.920Z,31.42
2022-08-28T10:48:30.751Z,31.42
2022-08-28T10:49:32.628Z,31.43
2022-08-28T10:50:34.579Z,31.44
2022-08-28T10:51:39.416Z,31.45
2022-08-28T10:52:39.980Z,31.46
2022-08-28T10:53:41.810Z,31.48
2022-08-28T10:54:43.683Z,31.49
2022-08-28T10:55:45.534Z,31.51
2022-08-28T10:56:48.432Z,31.51
2022-08-28T10:57:51.134Z,31.54
2022-08-28T10:58:52.982Z,31.54
2022-08-28T10:59:54.874Z,31.56
2022-08-28T11:00:56.974Z,31.56
2022-08-28T11:01:58.869Z,31.55
2022-08-28T11:03:02.905Z,31.56
2022-08-28T11:04:04.823Z,31.57
2022-08-28T11:05:06.721Z,31.57
2022-08-28T11:06:09.017Z,31.57
2022-08-28T11:07:10.880Z,31.57
2022-08-28T11:08:12.821Z,31.58
2022-08-28T11:09:14.700Z,31.58
2022-08-28T11:10:18.033Z,31.60
2022-08-28T11:11:19.883Z,31.60
2022-08-28T11:12:21.739Z,31.62
2022-08-28T11:13:24.623Z,31.66
2022-08-28T11:14:26.497Z,31.67
2022-08-28T11:15:36.371Z,31.69
2022-08-28T11:16:32.751Z,31.72
2022-08-28T11:17:35.224Z,31.72
2022-08-28T11:18:37.098Z,31.73
2022-08-28T11:19:43.893Z,31.75
2022-08-28T11:20:42.833Z,31.76
2022-08-28T11:21:44.702Z,31.78
2022-08-28T11:22:46.542Z,31.79
2022-08-28T11:23:48.412Z,31.80
2022-08-28T11:24:51.202Z,31.82
2022-08-28T11:25:53.124Z,31.83
2022-08-28T11:26:55.292Z,31.84
2022-08-28T11:27:57.138Z,31.86
2022-08-28T11:28:58.997Z,31.86
2022-08-28T11:30:00.919Z,31.86
2022-08-28T11:31:02.857Z,31.87
2022-08-28T11:32:04.885Z,31.88
2022-08-28T11:33:06.838Z,31.88
2022-08-28T11:34:08.728Z,31.88
2022-08-28T11:35:10.590Z,31.88
2022-08-28T11:36:12.810Z,31.89
2022-08-28T11:37:15.047Z,31.90
2022-08-28T11:38:19.980Z,31.92
2022-08-28T11:39:20.617Z,31.92
2022-08-28T11:40:22.627Z,31.94
2022-08-28T11:41:24.716Z,31.95
2022-08-28T11:42:26.567Z,31.95
2022-08-28T11:43:28.435Z,31.94
2022-08-28T11:44:30.291Z,31.96
2022-08-28T11:45:32.145Z,31.95
2022-08-28T11:46:36.114Z,31.96
2022-08-28T11:47:37.979Z,31.96
2022-08-28T11:48:39.830Z,31.96
2022-08-28T11:49:41.697Z,31.95
2022-08-28T11:50:43.764Z,31.95
2022-08-28T11:51:45.664Z,31.94
2022-08-28T11:52:47.535Z,31.93
2022-08-28T11:53:49.388Z,31.91
2022-08-28T11:54:51.241Z,31.91
2022-08-28T11:55:53.108Z,31.90
2022-08-28T11:56:55.125Z,31.90
2022-08-28T11:57:56.994Z,31.89
2022-08-28T11:58:58.877Z,31.89
2022-08-28T12:00:00.748Z,31.89
2022-08-28T12:01:02.612Z,31.89
2022-08-28T12:02:04.526Z,31.89
2022-08-28T12:03:06.462Z,31.90
2022-08-28T12:04:08.704Z,31.89
2022-08-28T12:05:10.639Z,31.90
2022-08-28T12:06:13.208Z,31.89
2022-08-28T12:07:15.111Z,31.89
2022-08-28T12:08:16.982Z,31.89
2022-08-28T12:09:18.854Z,31.89
2022-08-28T12:10:21.343Z,31.88
2022-08-28T12:11:23.208Z,31.87
2022-08-28T12:12:25.112Z,31.87
2022-08-28T12:13:26.986Z,31.86
2022-08-28T12:14:28.867Z,31.87
2022-08-28T12:15:30.751Z,31.86
2022-08-28T12:16:34.424Z,31.86
2022-08-28T12:17:36.344Z,31.86
2022-08-28T12:18:38.286Z,31.87
2022-08-28T12:19:52.102Z,31.87
2022-08-28T12:20:43.907Z,31.87
2022-08-28T12:21:45.848Z,31.88
2022-08-28T12:22:47.763Z,31.87
2022-08-28T12:23:49.622Z,31.87
2022-08-28T12:24:51.505Z,31.87
2022-08-28T12:25:53.399Z,31.88
2022-08-28T12:26:57.101Z,31.88
2022-08-28T12:27:59.142Z,31.88
2022-08-28T12:29:01.142Z,31.88
2022-08-28T12:30:03.108Z,31.88
2022-08-28T12:31:05.053Z,31.88
2022-08-28T12:32:06.966Z,31.88
2022-08-28T12:33:08.952Z,31.89
2022-08-28T12:34:10.921Z,31.90
2022-08-28T12:35:12.809Z,31.90
2022-08-28T12:36:15.088Z,31.90
2022-08-28T12:37:16.967Z,31.90
2022-08-28T12:38:18.864Z,31.91
2022-08-28T12:39:20.744Z,31.90
2022-08-28T12:40:24.435Z,31.89
2022-08-28T12:41:26.335Z,31.88
2022-08-28T12:42:28.210Z,31.88
2022-08-28T12:43:30.148Z,31.88
2022-08-28T12:44:32.012Z,31.87
2022-08-28T12:45:34.982Z,31.87
2022-08-28T12:46:37.682Z,31.87
2022-08-28T12:47:39.615Z,31.87
2022-08-28T12:48:41.522Z,31.87
2022-08-28T12:49:43.474Z,31.87
2022-08-28T12:50:45.488Z,31.87
2022-08-28T12:51:47.361Z,31.87
2022-08-28T12:52:49.245Z,31.86
2022-08-28T12:53:51.208Z,31.87
2022-08-28T12:54:53.065Z,31.86
2022-08-28T12:55:54.933Z,31.86
2022-08-28T12:56:57.034Z,31.85
2022-08-28T12:57:58.896Z,31.86
2022-08-28T12:59:00.811Z,31.85
2022-08-28T13:00:02.795Z,31.85
2022-08-28T13:01:04.731Z,31.84
2022-08-28T13:02:06.797Z,31.85
2022-08-28T13:03:08.737Z,31.85
2022-08-28T13:04:10.672Z,31.85
2022-08-28T13:05:12.566Z,31.85
2022-08-28T13:06:14.861Z,31.85
2022-08-28T13:07:16.727Z,31.85
2022-08-28T13:08:18.589Z,31.86
2022-08-28T13:09:20.525Z,31.86
2022-08-28T13:10:23.113Z,31.87
2022-08-28T13:11:25.001Z,31.85
2022-08-28T13:12:34.873Z,31.87
2022-08-28T13:13:30.519Z,31.86
2022-08-28T13:14:32.434Z,31.86
2022-08-28T13:15:34.302Z,31.86
2022-08-28T13:16:36.356Z,31.85
2022-08-28T13:17:38.240Z,31.85
2022-08-28T13:18:40.068Z,31.85
2022-08-28T13:19:42.389Z,31.86